createdAt,value
2023-02-09T00:01:14.886Z,26.97
2023-02-09T00:03:43.479Z,27.90
2023-02-09T00:06:14.765Z,28.00
2023-02-09T00:08:42.979Z,26.57
2023-02-09T00:11:16.730Z,27.53
2023-02-09T00:13:44.199Z,27.03
2023-02-09T00:16:12.638Z,30.23
2023-02-09T00:18:41.035Z,29.47
2023-02-09T00:21:11.204Z,27.27
2023-02-09T00:23:41.116Z,27.13
2023-02-09T00:26:11.227Z,25.90
2023-02-09T00:28:41.433Z,25.77
2023-02-09T00:31:11.051Z,27.47
2023-02-09T00:33:41.414Z,26.73
2023-02-09T00:36:12.714Z,30.13
2023-02-09T00:38:41.212Z,28.00
2023-02-09T00:41:10.771Z,30.03
2023-02-09T00:43:39.439Z,30.73
2023-02-09T00:46:09.032Z,26.47
2023-02-09T00:48:37.996Z,25.73
2023-02-09T00:51:06.299Z,26.67
2023-02-09T00:53:36.395Z,26.83
2023-02-09T00:56:04.444Z,26.80
2023-02-09T00:58:33.083Z,25.27
2023-02-09T01:01:01.080Z,26.13
2023-02-09T01:03:30.465Z,26.00
2023-02-09T01:05:59.812Z,26.63
2023-02-09T01:08:29.095Z,26.13
2023-02-09T01:10:57.081Z,28.87
2023-02-09T01:13:25.342Z,27.37
2023-02-09T01:15:53.386Z,28.07
2023-02-09T01:18:21.294Z,28.73
2023-02-09T01:20:50.558Z,28.17
2023-02-09T01:23:18.478Z,27.77
2023-02-09T01:25:46.403Z,28.67
2023-02-09T01:28:14.388Z,28.60
2023-02-09T01:30:42.546Z,28.50
2023-02-09T01:33:10.567Z,28.20
2023-02-09T01:35:38.548Z,27.63
2023-02-09T01:38:07.832Z,26.10
2023-02-09T01:40:36.400Z,26.13
2023-02-09T01:43:04.395Z,27.87
2023-02-09T01:45:36.958Z,26.97
2023-02-09T01:48:05.178Z,26.73
2023-02-09T01:50:37.966Z,27.00
2023-02-09T01:53:08.065Z,27.87
2023-02-09T01:55:41.180Z,25.80
2023-02-09T01:58:13.074Z,28.20
2023-02-09T02:00:42.067Z,27.27
2023-02-09T02:03:15.292Z,27.07
2023-02-09T02:05:47.669Z,29.50
2023-02-09T02:08:23.951Z,28.00
2023-02-09T02:10:53.309Z,29.10
2023-02-09T02:13:21.733Z,27.53
2023-02-09T02:16:00.447Z,27.40
2023-02-09T02:18:46.585Z,26.20
2023-02-09T02:22:05.619Z,27.33
2023-02-09T02:25:01.876Z,24.60
2023-02-09T02:27:33.343Z,25.80
2023-02-09T02:30:29.080Z,25.67
2023-02-09T02:33:07.788Z,25.63
2023-02-09T02:35:38.311Z,25.93
2023-02-09T02:38:17.192Z,25.67
2023-02-09T02:40:56.029Z,23.87
2023-02-09T02:43:38.660Z,25.30
2023-02-09T02:46:11.127Z,25.60
2023-02-09T02:48:43.866Z,25.90
2023-02-09T02:51:18.006Z,24.07
2023-02-09T02:53:52.115Z,25.70
2023-02-09T02:56:23.778Z,26.03
2023-02-09T02:58:55.246Z,26.23
2023-02-09T03:01:25.887Z,24.63
2023-02-09T03:03:56.467Z,24.20
2023-02-09T03:06:24.362Z,25.80
2023-02-09T03:08:54.337Z,25.13
2023-02-09T03:11:25.470Z,24.30
2023-02-09T03:14:22.270Z,25.13
2023-02-09T03:17:00.912Z,22.80
2023-02-09T03:19:39.681Z,25.17
2023-02-09T03:22:13.314Z,23.17
2023-02-09T03:24:45.402Z,25.07
2023-02-09T03:27:18.812Z,24.33
2023-02-09T03:29:48.883Z,25.17
2023-02-09T03:32:18.396Z,25.23
2023-02-09T03:34:48.427Z,24.33
2023-02-09T03:37:16.609Z,24.10
2023-02-09T03:39:44.703Z,25.00
2023-02-09T03:42:12.707Z,24.80
2023-02-09T03:44:40.662Z,24.03
2023-02-09T03:47:10.510Z,24.03
2023-02-09T03:49:40.195Z,24.73
2023-02-09T03:52:11.865Z,23.70
2023-02-09T03:54:40.108Z,23.63
2023-02-09T03:57:08.500Z,23.70
2023-02-09T03:59:37.488Z,24.73
2023-02-09T04:02:07.469Z,25.23
2023-02-09T04:04:35.915Z,24.50
2023-02-09T04:07:04.120Z,23.93
2023-02-09T04:09:33.592Z,23.97
2023-02-09T04:12:01.561Z,24.83
2023-02-09T04:14:29.620Z,23.00
2023-02-09T04:16:57.587Z,22.07
2023-02-09T04:19:25.555Z,23.63
2023-02-09T04:21:53.522Z,23.63
2023-02-09T04:24:28.721Z,25.43
2023-02-09T04:26:58.018Z,25.60
2023-02-09T04:29:25.999Z,25.20
2023-02-09T04:31:53.991Z,25.47
2023-02-09T04:34:24.121Z,24.90
2023-02-09T04:36:52.359Z,25.10
2023-02-09T04:39:20.379Z,24.03
2023-02-09T04:41:48.337Z,24.20
2023-02-09T04:44:17.598Z,24.03
2023-02-09T04:46:45.852Z,24.30
2023-02-09T04:49:14.648Z,25.03
2023-02-09T04:51:42.563Z,26.43
2023-02-09T04:54:10.612Z,26.10
2023-02-09T04:56:38.936Z,25.60
2023-02-09T04:59:24.408Z,25.00
2023-02-09T05:01:53.696Z,24.67
2023-02-09T05:04:21.640Z,26.20
2023-02-09T05:06:49.602Z,26.23
2023-02-09T05:09:17.548Z,26.90
2023-02-09T05:11:45.423Z,24.43
2023-02-09T05:14:13.315Z,27.17
2023-02-09T05:16:41.273Z,26.20
2023-02-09T05:19:10.629Z,26.73
2023-02-09T05:21:38.588Z,26.23
2023-02-09T05:24:07.317Z,26.77
2023-02-09T05:26:35.276Z,25.70
2023-02-09T05:29:03.706Z,25.90
2023-02-09T05:31:31.853Z,26.90
2023-02-09T05:34:01.073Z,26.53
2023-02-09T05:36:30.531Z,26.30
2023-02-09T05:38:58.486Z,25.37
2023-02-09T05:41:43.999Z,24.87
2023-02-09T05:44:11.979Z,24.63
2023-02-09T05:46:39.894Z,23.73
2023-02-09T05:49:07.898Z,24.20
2023-02-09T05:51:37.184Z,24.20
2023-02-09T05:54:05.370Z,25.60
2023-02-09T05:56:33.338Z,24.00
2023-02-09T05:59:02.988Z,28.03
2023-02-09T06:01:32.384Z,28.37
2023-02-09T06:04:00.359Z,31.93
2023-02-09T06:06:28.345Z,26.33
2023-02-09T06:08:57.631Z,27.17
2023-02-09T06:11:25.535Z,25.60
2023-02-09T06:13:53.516Z,26.07
2023-02-09T06:16:21.615Z,23.57
2023-02-09T06:18:49.646Z,24.37
2023-02-09T06:21:17.652Z,24.07
2023-02-09T06:23:45.895Z,24.77
2023-02-09T06:26:17.227Z,24.47
2023-02-09T06:28:45.762Z,26.40
2023-02-09T06:31:14.258Z,24.83
2023-02-09T06:33:42.343Z,25.83
2023-02-09T06:36:11.340Z,32.33
2023-02-09T06:38:39.677Z,30.33
2023-02-09T06:41:07.866Z,30.57
2023-02-09T06:43:37.278Z,26.70
2023-02-09T06:46:09.000Z,25.87
2023-02-09T06:48:37.648Z,24.83
2023-02-09T06:51:09.168Z,27.10
2023-02-09T06:53:37.544Z,26.40
2023-02-09T06:56:06.471Z,26.73
2023-02-09T06:58:34.697Z,26.17
2023-02-09T07:01:04.995Z,26.63
2023-02-09T07:03:33.138Z,26.17
2023-02-09T07:06:05.552Z,24.80
2023-02-09T07:08:33.730Z,26.07
2023-02-09T07:11:05.092Z,24.83
2023-02-09T07:13:33.601Z,25.10
2023-02-09T07:16:05.466Z,26.17
2023-02-09T07:18:33.723Z,26.33
2023-02-09T07:21:04.109Z,25.07
2023-02-09T07:23:32.625Z,25.90
2023-02-09T07:26:03.965Z,25.80
2023-02-09T07:28:32.128Z,24.90
2023-02-09T07:31:06.096Z,25.00
2023-02-09T07:33:34.616Z,26.23
2023-02-09T07:36:04.458Z,26.83
2023-02-09T07:38:32.693Z,27.07
2023-02-09T07:41:00.923Z,26.07
2023-02-09T07:43:28.998Z,25.97
2023-02-09T07:46:01.454Z,26.20
2023-02-09T07:48:31.354Z,26.13
2023-02-09T07:50:59.961Z,25.33
2023-02-09T07:53:28.904Z,24.67
2023-02-09T07:55:57.246Z,23.83
2023-02-09T07:58:25.391Z,24.90
2023-02-09T08:00:53.258Z,24.27
2023-02-09T08:03:24.421Z,24.90
2023-02-09T08:05:59.772Z,26.87
2023-02-09T08:08:27.912Z,24.37
2023-02-09T08:10:57.554Z,22.73
2023-02-09T08:13:27.366Z,24.93
2023-02-09T08:15:58.634Z,25.00
2023-02-09T08:18:29.930Z,23.70
2023-02-09T08:20:59.666Z,25.60
2023-02-09T08:23:31.036Z,25.73
2023-02-09T08:26:01.200Z,24.47
2023-02-09T08:28:42.776Z,21.77
2023-02-09T08:31:11.840Z,23.93
2023-02-09T08:33:39.984Z,24.20
2023-02-09T08:36:11.231Z,24.50
2023-02-09T08:38:39.297Z,23.90
2023-02-09T08:41:09.713Z,24.20
2023-02-09T08:43:37.881Z,25.80
2023-02-09T08:46:07.628Z,23.87
2023-02-09T08:48:37.602Z,26.30
2023-02-09T08:51:06.672Z,24.60
2023-02-09T08:53:36.280Z,24.27
2023-02-09T08:56:04.556Z,23.30
2023-02-09T08:58:33.346Z,24.07
2023-02-09T09:01:01.433Z,23.67
2023-02-09T09:03:31.754Z,24.23
2023-02-09T09:06:00.872Z,24.73
2023-02-09T09:08:29.117Z,24.27
2023-02-09T09:10:58.690Z,24.27
2023-02-09T09:13:27.338Z,24.00
2023-02-09T09:15:56.540Z,24.83
2023-02-09T09:18:25.133Z,23.77
2023-02-09T09:20:53.247Z,21.60
2023-02-09T09:23:21.563Z,23.13
2023-02-09T09:25:49.579Z,21.73
2023-02-09T09:28:19.103Z,23.23
2023-02-09T09:30:47.153Z,22.47
2023-02-09T09:33:15.162Z,22.70
2023-02-09T09:35:43.144Z,22.93
2023-02-09T09:38:11.061Z,22.90
2023-02-09T09:40:41.953Z,20.60
2023-02-09T09:43:20.225Z,23.30
2023-02-09T09:45:50.034Z,22.13
2023-02-09T09:48:24.487Z,22.03
2023-02-09T09:50:55.691Z,21.13
2023-02-09T09:53:31.714Z,20.60
2023-02-09T09:56:02.695Z,21.57
2023-02-09T09:58:33.024Z,22.50
2023-02-09T10:01:02.443Z,21.23
2023-02-09T10:03:30.389Z,19.43
2023-02-09T10:06:10.778Z,20.87
2023-02-09T10:08:44.683Z,20.30
2023-02-09T10:11:14.540Z,20.27
2023-02-09T10:13:45.816Z,19.07
2023-02-09T10:16:19.233Z,20.17
2023-02-09T10:18:50.579Z,18.13
2023-02-09T10:21:18.840Z,19.03
2023-02-09T10:23:50.420Z,18.10
2023-02-09T10:26:24.107Z,18.07
2023-02-09T10:28:55.306Z,19.53
2023-02-09T10:31:34.255Z,18.53
2023-02-09T10:34:05.120Z,18.77
2023-02-09T10:36:34.745Z,18.90
2023-02-09T10:39:17.918Z,18.67
2023-02-09T10:41:49.040Z,19.53
2023-02-09T10:44:21.443Z,20.00
2023-02-09T10:46:53.109Z,17.80
2023-02-09T10:49:29.863Z,19.57
2023-02-09T10:52:09.228Z,18.00
2023-02-09T10:54:41.689Z,18.43
2023-02-09T10:57:22.997Z,17.80
2023-02-09T10:59:56.237Z,17.90
2023-02-09T11:02:36.472Z,17.47
2023-02-09T11:05:05.088Z,17.30
2023-02-09T11:07:38.477Z,18.57
2023-02-09T11:10:14.062Z,17.33
2023-02-09T11:12:43.500Z,17.13
2023-02-09T11:15:14.708Z,17.83
2023-02-09T11:17:50.965Z,17.80
2023-02-09T11:20:28.822Z,16.97
2023-02-09T11:23:07.990Z,17.60
2023-02-09T11:25:42.255Z,16.90
2023-02-09T11:28:41.384Z,16.40
2023-02-09T11:31:40.289Z,16.30
2023-02-09T11:34:32.193Z,15.67
2023-02-09T11:37:08.954Z,16.13
2023-02-09T11:39:45.552Z,14.83
2023-02-09T11:42:36.509Z,12.80
2023-02-09T11:45:09.515Z,12.37
2023-02-09T11:47:46.969Z,12.23
2023-02-09T11:50:24.900Z,12.27
2023-02-09T11:52:56.449Z,13.00
2023-02-09T11:55:30.179Z,12.33
2023-02-09T11:58:10.352Z,13.30
2023-02-09T12:00:55.956Z,13.20
2023-02-09T12:03:27.925Z,14.07
2023-02-09T12:06:00.607Z,13.50
2023-02-09T12:08:45.219Z,13.13
2023-02-09T12:11:31.132Z,13.30
2023-02-09T12:14:27.790Z,12.73
2023-02-09T12:17:03.152Z,13.83
2023-02-09T12:19:35.977Z,14.60
2023-02-09T12:22:42.702Z,14.10
2023-02-09T12:25:34.409Z,14.80
2023-02-09T12:28:14.070Z,14.97
2023-02-09T12:31:08.645Z,14.90
2023-02-09T12:33:38.294Z,14.13
2023-02-09T12:36:28.121Z,14.80
2023-02-09T12:39:23.861Z,15.30
2023-02-09T12:42:27.207Z,14.70
2023-02-09T12:44:57.801Z,15.30
2023-02-09T12:47:58.297Z,13.97
2023-02-09T12:50:35.621Z,15.57
2023-02-09T12:53:56.008Z,14.93
2023-02-09T12:56:35.535Z,14.37
2023-02-09T12:59:17.967Z,15.43
2023-02-09T13:02:15.991Z,14.77
2023-02-09T13:05:00.018Z,15.10
2023-02-09T13:07:43.758Z,15.03
2023-02-09T13:10:24.499Z,14.73
2023-02-09T13:12:58.066Z,15.57
2023-02-09T13:15:34.378Z,15.23
2023-02-09T13:18:09.942Z,15.40
2023-02-09T13:21:02.960Z,16.43
2023-02-09T13:23:35.362Z,15.93
2023-02-09T13:26:16.961Z,16.37
2023-02-09T13:28:44.955Z,15.10
2023-02-09T13:31:34.812Z,14.50
2023-02-09T13:34:15.354Z,14.87
2023-02-09T13:36:51.132Z,15.00
2023-02-09T13:39:25.613Z,14.83
2023-02-09T13:41:55.408Z,14.57
2023-02-09T13:44:25.035Z,15.10
2023-02-09T13:46:57.556Z,15.20
2023-02-09T13:49:26.889Z,13.43
2023-02-09T13:52:10.330Z,14.60
2023-02-09T13:54:38.800Z,14.50
2023-02-09T13:57:11.363Z,13.70
2023-02-09T13:59:43.529Z,15.13
2023-02-09T14:02:22.138Z,15.83
2023-02-09T14:04:56.199Z,14.73
2023-02-09T14:07:29.679Z,14.57
2023-02-09T14:10:02.507Z,14.83
2023-02-09T14:12:52.370Z,17.10
2023-02-09T14:15:39.854Z,16.07
2023-02-09T14:18:24.942Z,17.50
2023-02-09T14:21:05.109Z,23.30
2023-02-09T14:23:35.960Z,18.40
2023-02-09T14:26:06.642Z,18.23
2023-02-09T14:28:37.341Z,17.57
2023-02-09T14:31:07.214Z,16.03
2023-02-09T14:33:38.670Z,14.03
2023-02-09T14:36:07.610Z,13.90
2023-02-09T14:38:38.014Z,16.27
2023-02-09T14:41:20.200Z,16.87
2023-02-09T14:43:59.289Z,16.67
2023-02-09T14:46:27.431Z,16.17
2023-02-09T14:48:59.834Z,17.20
2023-02-09T14:51:28.631Z,16.53
2023-02-09T14:53:56.628Z,16.73
2023-02-09T14:56:30.064Z,16.93
2023-02-09T14:58:58.031Z,15.00
2023-02-09T15:01:26.017Z,14.37
2023-02-09T15:03:54.097Z,15.50
2023-02-09T15:06:24.220Z,13.20
2023-02-09T15:08:52.238Z,14.93
2023-02-09T15:11:42.849Z,13.20
2023-02-09T15:14:12.046Z,14.13
2023-02-09T15:16:40.091Z,14.63
2023-02-09T15:19:12.898Z,12.97
2023-02-09T15:21:42.164Z,13.40
2023-02-09T15:24:10.148Z,13.60
2023-02-09T15:26:38.698Z,14.17
2023-02-09T15:29:12.266Z,14.10
2023-02-09T15:31:40.739Z,13.30
2023-02-09T15:34:11.206Z,16.20
2023-02-09T15:36:39.309Z,15.57
2023-02-09T15:39:17.930Z,17.80
2023-02-09T15:42:03.338Z,16.63
2023-02-09T15:44:48.937Z,17.53
2023-02-09T15:47:34.481Z,18.37
2023-02-09T15:50:02.393Z,15.80
2023-02-09T15:52:33.357Z,15.50
2023-02-09T15:55:03.708Z,14.47
2023-02-09T15:57:31.690Z,15.57
2023-02-09T15:59:59.620Z,15.27
2023-02-09T16:02:27.666Z,14.30
2023-02-09T16:04:55.738Z,14.83
2023-02-09T16:07:25.796Z,13.60
2023-02-09T16:09:54.027Z,13.87
2023-02-09T16:12:23.386Z,14.30
2023-02-09T16:14:53.247Z,15.27
2023-02-09T16:17:21.344Z,18.43
2023-02-09T16:19:49.350Z,22.73
2023-02-09T16:22:17.315Z,22.03
2023-02-09T16:24:46.721Z,25.53
2023-02-09T16:27:18.215Z,23.93
2023-02-09T16:29:47.465Z,22.50
2023-02-09T16:32:17.583Z,22.83
2023-02-09T16:34:46.180Z,22.10
2023-02-09T16:37:15.952Z,24.03
2023-02-09T16:39:44.165Z,21.10
2023-02-09T16:42:13.840Z,21.43
2023-02-09T16:44:42.261Z,23.07
2023-02-09T16:47:17.130Z,22.10
2023-02-09T16:49:52.227Z,21.23
2023-02-09T16:52:25.843Z,19.63
2023-02-09T16:54:56.540Z,21.33
2023-02-09T16:57:25.608Z,20.40
2023-02-09T16:59:54.698Z,21.07
2023-02-09T17:02:50.536Z,19.27
2023-02-09T17:05:22.086Z,18.70
2023-02-09T17:07:55.180Z,18.67
2023-02-09T17:10:26.001Z,15.63
2023-02-09T17:12:54.148Z,16.30
2023-02-09T17:15:30.663Z,17.57
2023-02-09T17:18:04.772Z,16.43
2023-02-09T17:20:38.480Z,17.83
2023-02-09T17:23:06.793Z,18.13
2023-02-09T17:25:34.693Z,18.40
2023-02-09T17:28:02.645Z,18.00
2023-02-09T17:30:33.746Z,17.60
2023-02-09T17:33:05.031Z,17.03
2023-02-09T17:36:03.714Z,19.53
2023-02-09T17:38:25.603Z,21.43
2023-02-09T17:40:55.844Z,22.37
2023-02-09T17:43:24.527Z,20.03
2023-02-09T17:45:52.803Z,20.07
2023-02-09T17:48:23.406Z,18.63
2023-02-09T17:50:58.065Z,20.27
2023-02-09T17:53:28.449Z,19.50
2023-02-09T17:55:57.105Z,17.70
2023-02-09T17:58:25.606Z,19.60
2023-02-09T18:00:55.749Z,22.13
2023-02-09T18:03:26.320Z,25.30
2023-02-09T18:05:58.299Z,21.13
2023-02-09T18:08:27.242Z,20.67
2023-02-09T18:10:58.493Z,22.17
2023-02-09T18:13:27.150Z,17.90
2023-02-09T18:15:55.170Z,20.20
2023-02-09T18:18:24.409Z,18.17
2023-02-09T18:20:53.880Z,19.20
2023-02-09T18:23:23.137Z,17.57
2023-02-09T18:25:51.549Z,17.87
2023-02-09T18:28:19.751Z,16.93
2023-02-09T18:30:47.734Z,16.20
2023-02-09T18:33:16.755Z,16.33
2023-02-09T18:35:45.871Z,18.83
2023-02-09T18:38:16.040Z,20.73
2023-02-09T18:40:44.021Z,21.20
2023-02-09T18:43:15.148Z,21.80
2023-02-09T18:45:43.082Z,19.80
2023-02-09T18:48:11.771Z,17.63
2023-02-09T18:50:40.240Z,17.90
2023-02-09T18:53:08.522Z,18.43
2023-02-09T18:55:37.874Z,19.40
2023-02-09T18:58:09.371Z,19.03
2023-02-09T19:00:37.572Z,17.87
2023-02-09T19:03:05.738Z,16.23
2023-02-09T19:05:34.809Z,17.87
2023-02-09T19:08:02.935Z,15.87
2023-02-09T19:10:33.027Z,17.97
2023-02-09T19:13:03.171Z,17.60
2023-02-09T19:15:31.971Z,17.53
2023-02-09T19:18:00.263Z,17.27
2023-02-09T19:20:29.931Z,19.80
2023-02-09T19:22:58.388Z,20.37
2023-02-09T19:25:29.317Z,21.77
2023-02-09T19:27:57.725Z,21.03
2023-02-09T19:30:28.729Z,18.77
2023-02-09T19:32:58.778Z,20.43
2023-02-09T19:35:29.309Z,18.97
2023-02-09T19:37:58.852Z,18.60
2023-02-09T19:40:36.226Z,18.43
2023-02-09T19:43:08.507Z,18.60
2023-02-09T19:45:38.103Z,19.43
2023-02-09T19:48:07.786Z,18.13
2023-02-09T19:50:37.575Z,18.63
2023-02-09T19:53:06.762Z,17.77
2023-02-09T19:55:35.091Z,18.63
2023-02-09T19:58:03.041Z,21.10
2023-02-09T20:00:32.984Z,20.47
2023-02-09T20:03:02.335Z,18.10
2023-02-09T20:05:30.409Z,16.57
2023-02-09T20:07:58.605Z,17.60
2023-02-09T20:10:26.557Z,18.23
2023-02-09T20:12:54.611Z,17.70
2023-02-09T20:15:22.680Z,18.07
2023-02-09T20:17:50.861Z,17.30
2023-02-09T20:20:20.226Z,17.80
2023-02-09T20:23:14.079Z,15.70
2023-02-09T20:25:45.277Z,15.50
2023-02-09T20:28:13.731Z,16.13
2023-02-09T20:30:42.954Z,17.33
2023-02-09T20:33:11.770Z,17.20
2023-02-09T20:35:42.226Z,16.60
2023-02-09T20:38:10.626Z,17.13
2023-02-09T20:40:38.628Z,14.43
2023-02-09T20:43:23.982Z,14.40
2023-02-09T20:46:09.570Z,15.10
2023-02-09T20:48:37.557Z,14.07
2023-02-09T20:51:07.011Z,17.60
2023-02-09T20:53:34.992Z,16.93
2023-02-09T20:56:02.944Z,15.37
2023-02-09T20:58:30.856Z,15.77
2023-02-09T21:00:58.867Z,16.27
2023-02-09T21:03:26.825Z,14.90
2023-02-09T21:05:54.856Z,15.40
2023-02-09T21:08:24.173Z,15.60
2023-02-09T21:10:56.433Z,16.00
2023-02-09T21:13:24.396Z,14.90
2023-02-09T21:15:52.548Z,13.73
2023-02-09T21:18:21.732Z,14.83
2023-02-09T21:20:49.993Z,15.03
2023-02-09T21:23:18.801Z,14.70
2023-02-09T21:25:48.157Z,13.93
2023-02-09T21:28:16.212Z,15.27
2023-02-09T21:30:45.414Z,14.50
2023-02-09T21:33:13.967Z,15.63
2023-02-09T21:35:42.093Z,15.83
2023-02-09T21:38:10.270Z,16.27
2023-02-09T21:40:38.646Z,16.90
2023-02-09T21:43:08.016Z,15.37
2023-02-09T21:45:38.971Z,14.90
2023-02-09T21:48:07.103Z,15.93
2023-02-09T21:50:35.113Z,16.30
2023-02-09T21:53:03.184Z,16.40
2023-02-09T21:55:31.418Z,16.43
2023-02-09T21:58:01.475Z,15.50
2023-02-09T22:00:31.871Z,15.80
2023-02-09T22:02:59.817Z,16.60
2023-02-09T22:05:27.746Z,16.43
2023-02-09T22:07:55.698Z,14.53
2023-02-09T22:10:23.768Z,15.50
2023-02-09T22:12:51.967Z,16.77
2023-02-09T22:15:19.940Z,16.17
2023-02-09T22:17:50.672Z,15.53
2023-02-09T22:20:18.730Z,15.30
2023-02-09T22:22:49.426Z,16.57
2023-02-09T22:25:17.493Z,15.43
2023-02-09T22:27:45.414Z,16.23
2023-02-09T22:30:13.755Z,16.23
2023-02-09T22:32:41.689Z,15.17
2023-02-09T22:35:11.139Z,15.27
2023-02-09T22:37:39.242Z,16.37
2023-02-09T22:40:07.860Z,14.33
2023-02-09T22:42:36.460Z,14.80
2023-02-09T22:45:04.995Z,15.63
2023-02-09T22:47:33.785Z,16.67
2023-02-09T22:50:01.684Z,15.87
2023-02-09T22:52:30.980Z,15.50
2023-02-09T22:54:59.292Z,16.63
2023-02-09T22:57:27.711Z,16.97
2023-02-09T22:59:55.656Z,15.73
2023-02-09T23:02:24.730Z,15.03
2023-02-09T23:04:52.697Z,15.70
2023-02-09T23:07:20.754Z,16.37
2023-02-09T23:09:49.984Z,16.10
2023-02-09T23:12:17.898Z,14.83
2023-02-09T23:14:45.866Z,15.23
2023-02-09T23:17:13.869Z,15.47
2023-02-09T23:19:43.013Z,15.97
2023-02-09T23:22:10.921Z,14.23
2023-02-09T23:24:38.863Z,15.27
2023-02-09T23:27:08.204Z,15.13
2023-02-09T23:29:36.113Z,15.17
2023-02-09T23:32:04.813Z,14.30
2023-02-09T23:34:33.540Z,14.73
2023-02-09T23:37:13.105Z,14.90
2023-02-09T23:39:46.800Z,14.80
2023-02-09T23:42:16.083Z,14.50
2023-02-09T23:44:44.020Z,15.20
2023-02-09T23:47:11.901Z,15.97
2023-02-09T23:49:39.837Z,15.33
2023-02-09T23:52:07.759Z,14.97
2023-02-09T23:54:35.621Z,15.63
2023-02-09T23:57:03.549Z,15.07
2023-02-09T23:59:33.075Z,14.93
